Time;durP1;ratioP1;P1;durP2;ratioP2;P2;SDS_P1;SDS_P2;PMS_P1;PMS_P2;Temp;Humidity;BMP_temperature;BMP_pressure;BME280_temperature;BME280_humidity;BME280_pressure;Samples;Min_cycle;Max_cycle;Signal;HPM_P1;HPM_P2
2023/07/30 00:01:20;;;;;;;6.00;1.00;;;;;;;17.65;83.49;99617.66;109760;1280;22925;-80
2023/07/30 00:03:51;;;;;;;5.60;1.00;;;;;;;17.62;83.45;99621.10;109786;1277;22313;-79
2023/07/30 00:06:23;;;;;;;4.80;0.80;;;;;;;17.60;83.49;99620.58;109797;1280;22225;-80
2023/07/30 00:08:54;;;;;;;4.40;0.90;;;;;;;17.59;83.49;99620.03;109759;1277;22190;-79
2023/07/30 00:11:26;;;;;;;4.80;1.00;;;;;;;17.55;83.60;99624.73;109788;1280;22131;-80
2023/07/30 00:13:57;;;;;;;5.90;1.00;;;;;;;17.52;83.46;99621.40;109758;1277;22237;-80
2023/07/30 00:16:30;;;;;;;8.30;1.50;;;;;;;17.51;83.51;99616.45;109780;1282;22349;-79
2023/07/30 00:19:00;;;;;;;7.10;0.80;;;;;;;17.49;83.56;99620.56;109763;1280;22321;-80
2023/07/30 00:21:32;;;;;;;4.00;0.80;;;;;;;17.47;83.53;99623.27;109778;1285;22218;-79
2023/07/30 00:24:03;;;;;;;3.50;0.80;;;;;;;17.43;83.66;99622.97;109762;1285;22276;-79
2023/07/30 00:26:35;;;;;;;6.00;0.90;;;;;;;17.38;83.71;99621.53;109777;1285;22235;-79
2023/07/30 00:29:06;;;;;;;6.50;0.90;;;;;;;17.35;83.80;99617.54;109754;1273;22341;-79
2023/07/30 00:31:37;;;;;;;5.30;0.80;;;;;;;17.33;83.94;99619.84;109771;1285;22205;-80
2023/07/30 00:34:08;;;;;;;4.70;0.70;;;;;;;17.31;83.89;99624.70;109789;1285;22958;-79
2023/07/30 00:36:40;;;;;;;5.90;0.80;;;;;;;17.28;84.04;99627.47;109783;1280;22314;-80
2023/07/30 00:39:12;;;;;;;5.20;0.90;;;;;;;17.25;84.20;99633.21;109722;1276;22166;-80
2023/07/30 00:41:43;;;;;;;4.60;0.90;;;;;;;17.21;84.26;99633.80;109775;1277;22246;-79
2023/07/30 00:44:14;;;;;;;4.50;0.90;;;;;;;17.16;84.32;99637.47;109781;1285;22832;-80
2023/07/30 00:46:44;;;;;;;6.90;0.90;;;;;;;17.11;84.46;99639.30;109773;1285;22224;-79
2023/07/30 00:49:15;;;;;;;6.30;1.00;;;;;;;17.05;84.58;99636.16;109756;1285;22158;-79
2023/07/30 00:51:46;;;;;;;7.80;1.00;;;;;;;16.98;84.75;99640.64;109763;1277;23232;-79
2023/07/30 00:54:18;;;;;;;4.30;0.80;;;;;;;16.90;84.83;99640.71;109757;1280;22238;-81
2023/07/30 00:56:53;;;;;;;6.90;1.00;;;;;;;16.86;85.09;99641.46;109762;1277;22340;-80
2023/07/30 00:59:25;;;;;;;4.60;1.00;;;;;;;16.81;85.15;99638.30;109772;1285;23387;-79
2023/07/30 01:01:57;;;;;;;4.10;0.90;;;;;;;16.78;85.25;99636.86;109777;1280;23651;-80
2023/07/30 01:04:30;;;;;;;7.70;0.90;;;;;;;16.76;85.19;99638.74;109783;1279;22130;-80
2023/07/30 01:07:01;;;;;;;6.90;0.90;;;;;;;16.73;85.44;99637.25;109760;1277;22222;-80
2023/07/30 01:09:34;;;;;;;4.70;0.90;;;;;;;16.72;85.40;99638.80;109751;1280;22176;-80
2023/07/30 01:12:06;;;;;;;5.00;0.90;;;;;;;16.70;85.51;99646.48;109761;1273;22268;-79
2023/07/30 01:14:38;;;;;;;6.40;0.90;;;;;;;16.67;85.53;99648.22;109771;1273;22184;-80
2023/07/30 01:17:10;;;;;;;4.80;0.80;;;;;;;16.62;85.57;99649.71;109766;1280;22281;-79
2023/07/30 01:19:41;;;;;;;5.80;0.80;;;;;;;16.59;85.66;99648.59;109748;1280;22193;-80
2023/07/30 01:22:11;;;;;;;4.30;0.90;;;;;;;16.55;85.71;99647.27;109804;1282;22928;-80
2023/07/30 01:24:42;;;;;;;4.90;0.90;;;;;;;16.51;85.85;99643.83;109771;1280;22224;-79
2023/07/30 01:27:19;;;;;;;10.80;1.20;;;;;;;16.50;85.91;99645.64;109800;1280;22169;-80
2023/07/30 01:29:54;;;;;;;6.00;1.10;;;;;;;16.50;85.95;99649.33;109769;1277;22945;-79
2023/07/30 01:32:28;;;;;;;8.80;1.20;;;;;;;16.48;85.96;99652.27;109772;1280;22384;-80
2023/07/30 01:35:01;;;;;;;8.20;1.30;;;;;;;16.44;86.00;99654.96;109761;1280;22201;-79
2023/07/30 01:37:33;;;;;;;4.30;0.90;;;;;;;16.42;86.18;99659.98;109765;1283;22149;-79
2023/07/30 01:40:05;;;;;;;8.20;0.90;;;;;;;16.39;86.14;99662.73;109772;1277;22408;-80
2023/07/30 01:42:36;;;;;;;5.30;0.90;;;;;;;16.37;86.30;99666.54;109769;1280;22194;-80
2023/07/30 01:45:09;;;;;;;4.30;0.80;;;;;;;16.36;86.39;99666.14;109767;1280;22190;-80
2023/07/30 01:47:40;;;;;;;4.20;0.70;;;;;;;16.34;86.31;99670.94;109767;1279;22230;-79
2023/07/30 01:50:11;;;;;;;8.30;1.00;;;;;;;16.33;86.20;99672.74;109714;1283;22192;-79
2023/07/30 01:52:42;;;;;;;7.40;1.00;;;;;;;16.33;86.39;99670.48;109757;1285;22138;-80
2023/07/30 01:55:13;;;;;;;8.30;0.90;;;;;;;16.30;86.18;99677.29;109752;1280;22334;-79
2023/07/30 01:57:43;;;;;;;9.20;1.10;;;;;;;16.30;86.51;99674.98;109768;1277;22852;-79
2023/07/30 02:00:15;;;;;;;6.80;1.10;;;;;;;16.27;86.57;99672.45;109764;1280;22393;-81
2023/07/30 02:02:45;;;;;;;6.20;0.90;;;;;;;16.27;86.60;99669.74;109762;1277;23244;-80
2023/07/30 02:05:16;;;;;;;9.20;1.10;;;;;;;16.27;86.48;99665.92;109799;1282;22987;-80
2023/07/30 02:07:47;;;;;;;4.50;1.00;;;;;;;16.28;86.31;99665.23;109784;1285;22306;-81
2023/07/30 02:10:18;;;;;;;6.60;0.90;;;;;;;16.31;86.35;99669.04;109761;1273;22179;-80
2023/07/30 02:12:49;;;;;;;6.20;0.90;;;;;;;16.31;86.15;99673.69;109764;1285;22233;-79
2023/07/30 02:15:20;;;;;;;7.40;1.00;;;;;;;16.31;86.24;99675.53;109771;1280;22254;-79
2023/07/30 02:17:51;;;;;;;8.10;1.80;;;;;;;16.29;86.25;99677.05;109736;1277;22204;-79
2023/07/30 02:20:21;;;;;;;5.20;0.80;;;;;;;16.25;86.19;99673.73;109768;1280;22167;-79
2023/07/30 02:22:52;;;;;;;4.80;0.80;;;;;;;16.21;86.18;99673.88;109769;1277;22193;-80
2023/07/30 02:25:23;;;;;;;10.30;0.90;;;;;;;16.18;86.23;99675.04;109774;1285;22235;-80
2023/07/30 02:27:53;;;;;;;5.10;1.20;;;;;;;16.14;86.31;99681.27;109762;1278;22367;-79
2023/07/30 02:30:24;;;;;;;6.00;1.00;;;;;;;16.11;86.31;99680.04;109746;1282;22919;-79
2023/07/30 02:32:55;;;;;;;11.60;1.00;;;;;;;16.08;86.72;99676.23;109767;1277;22162;-80
2023/07/30 02:35:25;;;;;;;5.00;0.80;;;;;;;16.06;86.69;99675.13;109792;1273;22337;-79
2023/07/30 02:37:56;;;;;;;5.60;1.00;;;;;;;16.04;86.64;99678.80;109756;1277;22433;-79
2023/07/30 02:40:27;;;;;;;5.80;0.90;;;;;;;16.02;86.68;99681.12;109765;1280;22139;-80
2023/07/30 02:42:58;;;;;;;5.30;0.80;;;;;;;15.99;86.63;99676.14;109764;1280;22225;-79
2023/07/30 02:45:29;;;;;;;7.00;0.80;;;;;;;15.97;86.61;99676.98;109757;1280;22184;-79
2023/07/30 02:47:59;;;;;;;7.70;0.90;;;;;;;15.94;86.46;99679.48;109767;1277;22211;-79
2023/07/30 02:50:30;;;;;;;8.30;1.00;;;;;;;15.91;86.67;99677.46;109754;1280;22229;-79
2023/07/30 02:53:01;;;;;;;8.40;1.20;;;;;;;15.89;86.76;99676.52;109748;1282;22159;-78
2023/07/30 02:55:31;;;;;;;6.00;0.90;;;;;;;15.86;87.02;99676.70;109758;1280;22896;-80
2023/07/30 02:58:02;;;;;;;7.80;1.00;;;;;;;15.83;87.04;99675.88;109772;1280;22198;-82
2023/07/30 03:00:33;;;;;;;4.80;0.80;;;;;;;15.82;87.28;99679.48;109743;1280;22222;-79
2023/07/30 03:03:04;;;;;;;8.00;1.20;;;;;;;15.79;87.28;99677.91;109759;1285;22993;-79
2023/07/30 03:05:35;;;;;;;7.10;0.90;;;;;;;15.77;87.37;99677.41;109772;1285;22198;-79
2023/07/30 03:08:06;;;;;;;6.60;0.80;;;;;;;15.72;87.46;99685.15;109752;1284;23251;-79
2023/07/30 03:10:38;;;;;;;8.20;1.20;;;;;;;15.68;87.49;99679.67;109761;1285;22273;-79
2023/07/30 03:13:09;;;;;;;7.10;1.00;;;;;;;15.67;87.69;99681.11;108688;1280;25312;-79
2023/07/30 03:15:39;;;;;;;8.50;1.40;;;;;;;15.66;87.92;99678.73;107079;1280;23045;-78
2023/07/30 03:18:10;;;;;;;11.60;1.10;;;;;;;15.64;88.11;99682.07;107047;1280;22532;-79
2023/07/30 03:20:41;;;;;;;6.10;1.10;;;;;;;15.64;88.28;99678.80;107034;1280;22533;-80
2023/07/30 03:23:11;;;;;;;4.40;0.90;;;;;;;15.62;88.57;99676.34;107080;1279;22494;-79
2023/07/30 03:25:42;;;;;;;4.40;0.90;;;;;;;15.62;88.56;99677.63;107045;1280;24269;-80
2023/07/30 03:28:13;;;;;;;5.30;0.90;;;;;;;15.63;88.73;99678.08;106988;1280;24262;-78
2023/07/30 03:30:43;;;;;;;4.80;1.30;;;;;;;15.62;88.68;99677.48;107132;1280;22530;-79
2023/07/30 03:33:14;;;;;;;7.10;1.00;;;;;;;15.63;88.90;99672.35;107120;1282;22941;-79
2023/07/30 03:35:45;;;;;;;7.60;1.00;;;;;;;15.65;88.81;99672.89;107082;1283;25617;-78
2023/07/30 03:38:16;;;;;;;8.30;1.00;;;;;;;15.65;88.95;99670.39;107051;1279;22713;-78
2023/07/30 03:40:46;;;;;;;5.40;1.00;;;;;;;15.66;89.09;99667.51;107013;1285;22533;-78
2023/07/30 03:43:17;;;;;;;7.60;1.10;;;;;;;15.65;89.12;99670.23;107061;1280;22525;-79
2023/07/30 03:45:48;;;;;;;12.30;1.20;;;;;;;15.65;89.30;99670.38;106904;1277;23462;-81
2023/07/30 03:48:19;;;;;;;6.90;1.00;;;;;;;15.65;89.47;99672.73;106968;1283;22579;-78
2023/07/30 03:50:50;;;;;;;7.20;0.80;;;;;;;15.66;89.42;99673.55;106961;1273;25615;-78
2023/07/30 03:53:20;;;;;;;9.80;1.00;;;;;;;15.67;89.54;99674.66;106966;1285;22492;-79
2023/07/30 03:55:51;;;;;;;8.40;0.80;;;;;;;15.68;89.51;99675.22;106999;1277;25530;-78
2023/07/30 03:58:22;;;;;;;6.00;0.90;;;;;;;15.70;89.63;99683.70;107153;1280;23046;-79
2023/07/30 04:00:52;;;;;;;9.90;1.30;;;;;;;15.70;89.85;99680.67;107051;1277;25286;-79
2023/07/30 04:03:23;;;;;;;5.40;1.00;;;;;;;15.70;89.83;99682.05;106956;1280;26029;-79
2023/07/30 04:05:54;;;;;;;6.70;1.10;;;;;;;15.71;90.03;99680.60;107026;1277;22554;-78
2023/07/30 04:08:25;;;;;;;7.40;0.80;;;;;;;15.72;90.04;99681.05;107086;1280;25296;-78
2023/07/30 04:10:55;;;;;;;7.20;0.90;;;;;;;15.74;90.22;99686.91;107129;1282;23031;-79
2023/07/30 04:13:26;;;;;;;10.00;1.00;;;;;;;15.75;90.36;99687.77;107142;1285;24197;-81
2023/07/30 04:15:57;;;;;;;7.40;1.10;;;;;;;15.75;90.43;99683.33;107045;1285;22533;-79
2023/07/30 04:18:27;;;;;;;8.90;1.20;;;;;;;15.75;90.48;99687.11;107091;1280;22558;-78
2023/07/30 04:20:58;;;;;;;10.20;1.30;;;;;;;15.74;90.52;99691.16;107012;1277;22622;-79
2023/07/30 04:23:29;;;;;;;6.40;1.10;;;;;;;15.77;90.44;99696.56;107096;1285;22680;-78
2023/07/30 04:25:59;;;;;;;6.60;1.00;;;;;;;15.81;90.71;99698.34;107019;1285;22526;-78
2023/07/30 04:28:30;;;;;;;12.80;1.30;;;;;;;15.82;90.76;99697.41;107120;1277;23717;-80
2023/07/30 04:31:01;;;;;;;6.60;1.00;;;;;;;15.84;90.91;99697.91;107014;1278;22543;-78
2023/07/30 04:33:31;;;;;;;9.60;1.30;;;;;;;15.87;90.83;99695.48;107040;1283;22537;-78
2023/07/30 04:36:02;;;;;;;6.10;0.90;;;;;;;15.91;91.07;99694.77;107004;1278;22571;-79
2023/07/30 04:38:33;;;;;;;5.30;1.00;;;;;;;15.94;91.13;99694.73;107080;1283;22527;-79
2023/07/30 04:41:04;;;;;;;6.40;0.70;;;;;;;15.96;91.27;99694.30;107062;1277;22671;-78
2023/07/30 04:43:34;;;;;;;9.10;1.20;;;;;;;15.98;91.38;99695.75;107079;1280;25467;-78
2023/07/30 04:46:05;;;;;;;6.30;0.90;;;;;;;16.02;91.72;99699.86;107069;1283;22556;-79
2023/07/30 04:48:36;;;;;;;7.20;1.10;;;;;;;16.06;91.65;99701.75;107035;1279;22572;-78
2023/07/30 04:51:06;;;;;;;5.00;0.70;;;;;;;16.11;91.82;99700.48;107043;1277;22550;-78
2023/07/30 04:53:37;;;;;;;10.10;1.00;;;;;;;16.17;92.03;99701.56;107080;1280;22570;-78
2023/07/30 04:56:08;;;;;;;6.50;1.20;;;;;;;16.22;92.16;99702.55;107071;1280;22539;-80
2023/07/30 04:58:38;;;;;;;5.40;1.10;;;;;;;16.27;92.19;99708.21;107066;1285;22554;-78
2023/07/30 05:01:09;;;;;;;9.70;1.00;;;;;;;16.32;92.25;99709.89;107143;1283;24262;-79
2023/07/30 05:03:40;;;;;;;6.70;1.20;;;;;;;16.35;92.65;99713.94;107155;1279;22617;-79
2023/07/30 05:06:11;;;;;;;6.60;1.00;;;;;;;16.39;92.81;99710.52;107103;1281;23926;-78
2023/07/30 05:08:41;;;;;;;4.60;1.00;;;;;;;16.44;92.63;99714.14;107090;1280;23123;-79
2023/07/30 05:11:12;;;;;;;7.80;0.90;;;;;;;16.51;92.76;99716.48;107043;1280;22713;-79
2023/07/30 05:13:43;;;;;;;8.40;1.10;;;;;;;16.58;93.08;99721.05;106969;1273;24308;-82
2023/07/30 05:16:14;;;;;;;6.80;0.90;;;;;;;16.63;93.18;99720.11;106990;1283;22529;-78
2023/07/30 05:18:44;;;;;;;8.70;1.10;;;;;;;16.72;93.27;99717.88;107081;1278;25417;-79
2023/07/30 05:21:15;;;;;;;6.00;1.10;;;;;;;16.78;93.24;99715.43;107139;1279;22636;-80
2023/07/30 05:23:46;;;;;;;12.30;1.00;;;;;;;16.87;93.33;99714.89;107034;1283;24276;-79
2023/07/30 05:26:16;;;;;;;8.80;1.00;;;;;;;16.94;93.43;99708.73;107066;1279;22603;-81
2023/07/30 05:28:47;;;;;;;11.90;1.30;;;;;;;17.02;93.53;99710.48;107143;1277;22528;-79
2023/07/30 05:31:18;;;;;;;9.70;1.60;;;;;;;17.09;93.45;99708.00;107043;1280;22529;-78
2023/07/30 05:33:48;;;;;;;11.80;1.10;;;;;;;17.16;93.68;99704.30;107106;1285;22529;-79
2023/07/30 05:36:19;;;;;;;10.20;1.50;;;;;;;17.23;93.49;99702.58;107059;1280;25439;-80
2023/07/30 05:38:49;;;;;;;7.00;1.30;;;;;;;17.28;93.38;99692.92;107098;1279;23893;-79
2023/07/30 05:41:21;;;;;;;6.40;0.90;;;;;;;17.35;93.55;99690.86;107127;1278;23560;-78
2023/07/30 05:43:51;;;;;;;7.90;1.10;;;;;;;17.44;93.59;99694.98;107070;1278;24259;-79
2023/07/30 05:46:22;;;;;;;9.90;1.10;;;;;;;17.54;93.77;99699.11;107154;1283;25241;-80
2023/07/30 05:48:53;;;;;;;8.70;1.10;;;;;;;17.67;93.93;99700.20;107094;1274;22540;-80
2023/07/30 05:51:24;;;;;;;6.80;1.20;;;;;;;17.80;94.03;99705.20;107043;1281;22544;-79
2023/07/30 05:53:54;;;;;;;11.60;1.40;;;;;;;17.91;93.85;99708.37;107074;1282;22534;-79
2023/07/30 05:56:25;;;;;;;5.10;1.10;;;;;;;17.99;93.60;99710.67;107085;1262;22695;-80
2023/07/30 05:58:56;;;;;;;4.90;1.00;;;;;;;18.07;93.53;99712.34;107114;1277;22537;-80
2023/07/30 06:01:26;;;;;;;6.20;0.90;;;;;;;18.15;93.70;99715.15;107113;1283;26080;-79
2023/07/30 06:03:57;;;;;;;9.10;0.90;;;;;;;18.24;93.77;99714.02;107116;1280;25367;-80
2023/07/30 06:06:28;;;;;;;4.20;0.70;;;;;;;18.31;93.36;99717.21;107175;1280;22521;-81
2023/07/30 06:08:58;;;;;;;5.50;1.20;;;;;;;18.38;93.20;99716.30;108344;1277;22226;-81
2023/07/30 06:11:29;;;;;;;6.60;1.00;;;;;;;18.46;93.12;99722.49;109755;1281;22143;-80
2023/07/30 06:14:00;;;;;;;9.00;0.90;;;;;;;18.54;93.23;99726.70;109778;1277;22332;-82
2023/07/30 06:16:31;;;;;;;4.70;0.80;;;;;;;18.63;93.07;99730.35;109772;1280;22278;-80
2023/07/30 06:19:02;;;;;;;9.90;1.20;;;;;;;18.72;93.26;99729.17;109747;1282;23480;-81
2023/07/30 06:21:32;;;;;;;5.60;0.90;;;;;;;18.81;93.19;99732.27;109707;1283;22272;-79
2023/07/30 06:24:03;;;;;;;6.60;0.90;;;;;;;18.91;93.47;99740.94;109706;1277;22172;-80
2023/07/30 06:26:34;;;;;;;12.90;1.00;;;;;;;19.03;93.47;99740.16;109725;1277;22292;-84
2023/07/30 06:29:05;;;;;;;7.90;1.40;;;;;;;19.12;93.21;99738.59;109760;1282;22199;-79
2023/07/30 06:31:36;;;;;;;10.20;1.20;;;;;;;19.21;92.56;99740.88;109688;1282;23086;-81
2023/07/30 06:34:07;;;;;;;10.10;1.00;;;;;;;19.30;91.99;99748.71;109775;1277;22225;-80
2023/07/30 06:36:38;;;;;;;5.20;1.10;;;;;;;19.39;91.95;99748.67;109768;1283;22280;-79
2023/07/30 06:39:08;;;;;;;3.50;0.70;;;;;;;19.50;91.97;99751.79;109727;1277;22963;-79
2023/07/30 06:41:39;;;;;;;5.30;0.90;;;;;;;19.59;91.67;99749.90;109723;1279;22255;-80
2023/07/30 06:44:10;;;;;;;6.40;0.80;;;;;;;19.69;90.84;99752.29;109757;1279;22253;-79
2023/07/30 06:46:51;;;;;;;;;;;;;;;;;;;;;
2023/07/30 06:49:22;;;;;;;8.20;1.10;;;;;;;19.84;89.68;99751.27;109737;1280;22225;-81
2023/07/30 06:51:54;;;;;;;8.30;0.90;;;;;;;19.93;89.46;99753.01;109742;1277;22162;-81
2023/07/30 06:54:25;;;;;;;6.50;1.30;;;;;;;20.01;88.94;99746.59;109766;1285;22212;-81
2023/07/30 06:56:55;;;;;;;5.50;0.90;;;;;;;20.08;88.16;99749.14;109752;1283;22308;-79
2023/07/30 06:59:26;;;;;;;3.50;1.00;;;;;;;20.14;87.84;99755.15;109725;1285;22174;-79
2023/07/30 07:01:57;;;;;;;6.70;1.00;;;;;;;20.22;87.64;99754.70;109753;1284;22204;-80
2023/07/30 07:04:27;;;;;;;5.70;1.30;;;;;;;20.29;87.45;99754.52;109750;1285;22168;-79
2023/07/30 07:06:58;;;;;;;4.90;1.10;;;;;;;20.36;86.88;99759.48;109740;1282;22132;-78
2023/07/30 07:09:29;;;;;;;7.20;1.10;;;;;;;20.41;86.57;99761.08;109658;1273;22469;-80
2023/07/30 07:12:00;;;;;;;7.10;0.90;;;;;;;20.46;86.18;99761.80;109707;1279;22158;-79
2023/07/30 07:14:31;;;;;;;5.10;1.00;;;;;;;20.54;86.17;99763.11;109735;1285;22195;-81
2023/07/30 07:17:02;;;;;;;5.30;1.00;;;;;;;20.60;85.99;99761.89;109724;1285;22188;-78
2023/07/30 07:19:36;;;;;;;8.80;1.10;;;;;;;20.69;86.05;99765.05;109704;1282;22421;-78
2023/07/30 07:22:07;;;;;;;13.40;1.40;;;;;;;20.76;85.08;99768.70;109714;1282;22240;-77
2023/07/30 07:24:38;;;;;;;7.20;1.20;;;;;;;20.81;84.65;99768.91;109745;1271;22180;-78
2023/07/30 07:27:09;;;;;;;6.30;1.00;;;;;;;20.86;84.54;99766.43;109749;1283;22208;-77
2023/07/30 07:29:40;;;;;;;7.90;1.10;;;;;;;20.92;84.09;99767.14;109744;1283;22230;-77
2023/07/30 07:32:11;;;;;;;4.70;0.90;;;;;;;20.95;83.56;99765.55;109739;1283;22151;-77
2023/07/30 07:34:41;;;;;;;8.70;1.10;;;;;;;20.98;83.52;99766.55;109752;1283;23049;-78
2023/07/30 07:37:14;;;;;;;4.80;1.10;;;;;;;21.04;83.30;99767.35;109734;1283;22285;-77
2023/07/30 07:39:45;;;;;;;7.90;1.10;;;;;;;21.09;82.23;99773.35;109707;1280;22119;-77
2023/07/30 07:42:16;;;;;;;8.20;1.20;;;;;;;21.11;81.98;99775.20;109709;1280;22224;-81
2023/07/30 07:44:47;;;;;;;5.70;1.30;;;;;;;21.14;81.86;99770.86;109717;1277;22276;-78
2023/07/30 07:47:17;;;;;;;7.60;1.00;;;;;;;21.18;82.00;99773.41;109702;1283;22269;-78
2023/07/30 07:49:49;;;;;;;9.40;1.10;;;;;;;21.27;82.15;99774.41;109698;1281;22497;-78
2023/07/30 07:52:20;;;;;;;4.50;1.00;;;;;;;21.36;82.03;99770.87;109541;1277;23220;-79
2023/07/30 07:54:51;;;;;;;3.40;0.80;;;;;;;21.46;81.54;99770.55;109668;1278;22808;-79
2023/07/30 07:57:21;;;;;;;6.90;2.40;;;;;;;21.52;80.81;99763.48;109674;1277;22260;-78
2023/07/30 07:59:52;;;;;;;7.30;1.00;;;;;;;21.59;80.51;99761.88;109703;1278;23416;-77
2023/07/30 08:02:24;;;;;;;5.90;1.20;;;;;;;21.65;80.02;99762.00;109678;1285;22261;-79
2023/07/30 08:04:55;;;;;;;5.90;1.00;;;;;;;21.68;79.33;99761.59;109718;1278;23200;-77
2023/07/30 08:07:25;;;;;;;4.60;0.80;;;;;;;21.71;79.12;99759.61;109640;1283;23341;-78
2023/07/30 08:09:56;;;;;;;5.20;1.20;;;;;;;21.77;79.26;99761.43;109664;1284;22216;-80
2023/07/30 08:12:27;;;;;;;5.10;0.80;;;;;;;21.84;78.68;99760.95;109683;1285;23318;-78
2023/07/30 08:14:58;;;;;;;5.20;1.00;;;;;;;21.87;77.82;99763.73;109695;1277;22297;-79
2023/07/30 08:17:29;;;;;;;5.10;1.10;;;;;;;21.91;78.13;99765.59;109599;1285;23237;-81
2023/07/30 08:20:00;;;;;;;10.20;1.10;;;;;;;22.00;78.84;99761.86;109686;1285;23074;-80
2023/07/30 08:22:31;;;;;;;7.10;1.30;;;;;;;22.13;78.45;99762.04;109654;1279;22198;-79
2023/07/30 08:25:02;;;;;;;6.20;1.00;;;;;;;22.20;77.67;99760.28;109752;1279;22316;-79
2023/07/30 08:27:33;;;;;;;5.50;1.00;;;;;;;22.29;77.70;99761.70;109723;1277;22627;-80
2023/07/30 08:30:04;;;;;;;2.40;0.80;;;;;;;22.36;76.73;99764.20;109700;1285;22350;-79
2023/07/30 08:32:35;;;;;;;6.10;1.00;;;;;;;22.40;76.64;99763.88;109593;1280;22447;-80
2023/07/30 08:35:06;;;;;;;3.50;0.90;;;;;;;22.46;77.04;99766.41;109683;1283;22201;-80
2023/07/30 08:37:37;;;;;;;5.30;0.70;;;;;;;22.55;76.61;99764.37;109723;1285;22458;-81
2023/07/30 08:40:10;;;;;;;6.30;0.70;;;;;;;22.64;76.67;99761.60;109682;1282;22185;-81
2023/07/30 08:42:41;;;;;;;7.30;0.90;;;;;;;22.71;75.86;99765.33;109600;1279;23104;-82
2023/07/30 08:45:13;;;;;;;3.10;0.90;;;;;;;22.80;76.09;99766.39;109565;1280;23140;-81
2023/07/30 08:47:45;;;;;;;9.30;0.80;;;;;;;22.90;75.04;99770.94;109609;1280;23056;-80
2023/07/30 08:50:16;;;;;;;9.40;1.30;;;;;;;22.91;74.47;99767.70;109698;1282;22228;-76
2023/07/30 08:52:48;;;;;;;2.60;0.80;;;;;;;22.98;74.24;99765.27;109671;1285;22154;-76
2023/07/30 08:55:20;;;;;;;5.00;0.90;;;;;;;23.04;73.78;99762.86;109702;1277;22354;-76
2023/07/30 08:57:51;;;;;;;4.70;0.80;;;;;;;23.10;73.92;99762.71;109585;1280;22567;-76
2023/07/30 09:00:25;;;;;;;5.30;0.80;;;;;;;23.19;73.68;99761.34;109686;1285;22207;-76
2023/07/30 09:02:59;;;;;;;4.90;0.90;;;;;;;23.25;72.95;99759.89;109688;1279;22383;-75
2023/07/30 09:05:30;;;;;;;2.80;0.70;;;;;;;23.34;72.68;99760.38;109663;1282;23543;-75
2023/07/30 09:08:01;;;;;;;4.30;0.70;;;;;;;23.40;72.32;99759.79;109706;1279;22461;-76
2023/07/30 09:10:32;;;;;;;2.80;0.60;;;;;;;23.46;71.69;99759.85;109599;1285;22349;-76
2023/07/30 09:13:04;;;;;;;8.50;0.90;;;;;;;23.49;70.92;99754.67;109647;1277;22233;-76
2023/07/30 09:15:37;;;;;;;6.20;1.10;;;;;;;23.51;71.02;99753.86;109652;1283;22209;-76
2023/07/30 09:18:08;;;;;;;2.70;0.80;;;;;;;23.58;70.85;99754.91;109613;1285;22901;-76
2023/07/30 09:20:42;;;;;;;4.00;0.60;;;;;;;23.66;70.47;99751.50;109677;1283;23023;-76
2023/07/30 09:23:13;;;;;;;3.70;0.80;;;;;;;23.69;69.77;99747.21;109670;1285;22195;-76
2023/07/30 09:25:48;;;;;;;3.50;0.80;;;;;;;23.69;68.81;99744.36;109683;1282;22178;-74
2023/07/30 09:28:20;;;;;;;3.20;0.80;;;;;;;23.71;69.11;99748.94;109669;1279;22154;-76
2023/07/30 09:31:00;;;;;;;2.40;0.60;;;;;;;23.79;69.12;99742.05;109696;1283;22344;-76
2023/07/30 09:33:31;;;;;;;4.20;0.70;;;;;;;23.92;68.68;99742.73;109621;1276;22447;-76
2023/07/30 09:36:04;;;;;;;5.00;0.60;;;;;;;23.98;67.86;99739.02;109671;1273;22356;-76
2023/07/30 09:38:39;;;;;;;4.50;0.80;;;;;;;24.04;68.11;99736.85;109696;1285;22234;-76
2023/07/30 09:41:12;;;;;;;2.10;0.70;;;;;;;24.11;67.76;99737.52;109715;1285;22333;-76
2023/07/30 09:43:43;;;;;;;4.40;0.70;;;;;;;24.16;66.88;99736.36;109740;1285;22304;-76
2023/07/30 09:46:14;;;;;;;6.10;0.90;;;;;;;24.13;65.68;99742.40;109709;1283;22170;-76
2023/07/30 09:48:44;;;;;;;5.50;0.90;;;;;;;24.12;65.71;99741.34;109700;1284;22248;-75
2023/07/30 09:51:15;;;;;;;4.00;0.80;;;;;;;24.14;65.85;99736.27;109715;1277;22274;-74
2023/07/30 09:53:47;;;;;;;6.80;0.90;;;;;;;24.18;65.91;99731.66;109737;1278;22193;-80
2023/07/30 09:56:20;;;;;;;3.00;0.70;;;;;;;24.18;65.21;99731.59;109731;1285;22960;-76
2023/07/30 09:58:51;;;;;;;2.90;0.70;;;;;;;24.20;65.06;99732.98;109014;1285;23170;-76
2023/07/30 10:01:26;;;;;;;6.10;1.50;;;;;;;24.20;64.70;99733.19;107089;1285;22534;-76
2023/07/30 10:03:59;;;;;;;6.80;0.70;;;;;;;24.20;64.70;99730.48;107122;1285;25603;-76
2023/07/30 10:06:32;;;;;;;4.00;0.70;;;;;;;24.25;64.25;99729.84;107076;1283;22618;-77
2023/07/30 10:09:04;;;;;;;2.10;0.70;;;;;;;24.30;64.72;99732.02;107227;1285;22583;-76
2023/07/30 10:11:35;;;;;;;4.50;0.80;;;;;;;24.41;64.89;99732.52;107080;1285;22589;-76
2023/07/30 10:14:07;;;;;;;4.60;0.80;;;;;;;24.54;63.97;99728.11;107096;1285;25439;-77
2023/07/30 14:29:18;;;;;;;2.40;0.70;;;;;;;24.48;67.68;99623.38;103690;1298;557492;-61
2023/07/30 14:31:49;;;;;;;2.40;0.70;;;;;;;24.66;67.03;99636.84;105249;1283;148474;-61
2023/07/30 14:34:20;;;;;;;3.90;0.70;;;;;;;24.73;67.02;99649.02;105550;1284;23034;-61
2023/07/30 14:36:51;;;;;;;2.20;0.70;;;;;;;24.80;66.55;99654.14;105536;1281;24246;-61
2023/07/30 14:39:21;;;;;;;4.50;0.90;;;;;;;24.86;66.24;99668.45;105454;1278;25354;-62
2023/07/30 14:41:52;;;;;;;2.60;0.60;;;;;;;24.88;64.96;99662.71;106121;1276;24249;-61
2023/07/30 14:44:23;;;;;;;2.50;0.60;;;;;;;24.87;64.42;99655.41;106176;1271;24174;-63
2023/07/30 14:46:56;;;;;;;3.70;0.80;;;;;;;24.87;64.20;99639.88;106141;1274;22540;-60
2023/07/30 14:49:28;;;;;;;3.20;0.70;;;;;;;24.85;63.82;99638.77;110349;1271;22233;-60
2023/07/30 14:51:58;;;;;;;3.30;0.70;;;;;;;24.82;63.50;99640.13;110254;1272;23095;-60
2023/07/30 14:54:29;;;;;;;2.40;0.80;;;;;;;24.77;63.53;99649.19;110305;1269;23204;-66
2023/07/30 14:57:00;;;;;;;3.60;0.80;;;;;;;24.73;63.23;99656.43;110202;1269;24066;-60
2023/07/30 14:59:31;;;;;;;5.40;0.90;;;;;;;24.70;62.99;99667.58;110297;1270;22325;-59
2023/07/30 15:02:02;;;;;;;2.80;0.60;;;;;;;24.65;62.60;99678.15;110293;1276;22384;-62
2023/07/30 15:04:33;;;;;;;2.20;0.60;;;;;;;24.57;61.65;99671.14;110408;1275;22215;-60
2023/07/30 15:07:05;;;;;;;3.00;0.50;;;;;;;24.48;61.65;99670.29;110388;1275;22203;-61
2023/07/30 15:09:36;;;;;;;1.30;0.40;;;;;;;24.43;61.74;99669.06;110399;1275;23580;-60
2023/07/30 15:12:09;;;;;;;1.90;0.60;;;;;;;24.39;61.77;99677.83;110311;1270;22399;-66
2023/07/30 15:14:40;;;;;;;2.30;0.60;;;;;;;24.35;61.58;99689.06;110354;1268;22411;-60
2023/07/30 15:17:11;;;;;;;3.60;0.50;;;;;;;24.27;61.50;99699.63;110328;1267;22353;-62
2023/07/30 15:19:46;;;;;;;2.10;0.60;;;;;;;24.18;61.30;99696.88;110324;1268;23586;-61
2023/07/30 15:22:17;;;;;;;2.00;0.70;;;;;;;24.11;61.30;99694.65;110346;1274;23080;-61
2023/07/30 15:24:49;;;;;;;2.50;0.50;;;;;;;24.05;61.27;99698.71;110298;1269;22317;-60
2023/07/30 15:27:23;;;;;;;2.60;0.60;;;;;;;23.95;60.96;99706.51;110292;1269;22871;-61
2023/07/30 15:29:54;;;;;;;2.30;0.50;;;;;;;23.81;60.95;99708.12;110342;1265;22215;-61
2023/07/30 15:32:25;;;;;;;6.40;0.50;;;;;;;23.64;61.21;99700.88;110399;1275;22394;-61
2023/07/30 15:34:56;;;;;;;1.80;0.50;;;;;;;23.49;61.30;99699.69;110367;1275;22511;-60
2023/07/30 15:37:27;;;;;;;2.60;0.60;;;;;;;23.33;61.49;99698.48;110447;1275;22683;-61
2023/07/30 15:39:57;;;;;;;1.60;0.40;;;;;;;23.18;61.06;99698.02;110391;1275;22935;-61
2023/07/30 15:42:28;;;;;;;3.20;0.50;;;;;;;22.97;60.87;99697.16;110369;1275;22621;-61
2023/07/30 15:44:59;;;;;;;2.00;0.60;;;;;;;22.83;61.55;99685.97;110344;1270;22446;-60
2023/07/30 15:47:30;;;;;;;3.20;0.50;;;;;;;22.71;62.41;99689.63;110439;1273;22281;-61
2023/07/30 15:50:00;;;;;;;1.60;0.40;;;;;;;22.53;63.61;99701.38;110376;1275;22824;-60
2023/07/30 15:52:32;;;;;;;3.90;0.50;;;;;;;22.30;64.86;99704.10;110356;1275;22286;-60
2023/07/30 15:55:03;;;;;;;1.60;0.50;;;;;;;22.01;65.61;99696.75;110406;1275;22239;-58
2023/07/30 15:57:34;;;;;;;2.60;0.50;;;;;;;21.77;66.43;99694.48;110415;1272;22202;-61